Accedi per prenotare

Caricamento...

Situazione Metar e Taf aeroporto Pisa - Effemeridi Aeroporto Lucca

[Source: ADDS]
METAR
LIRP 051615Z 25007KT CAVOK 22/14 Q1000 NOSIG =
LIRP 051100Z 0512/0612 26012KT 9999 FEW030 BECMG 0517/0519 24005KT BECMG 0600/0602 VRB03KT 6000 SCT040 PROB40 TEMPO 0600/0605 2000 MIFG SCT010 BECMG 0605/0607 23005KT 9999 BKN040
TAF
LIRP 051100Z 0512/0612 26012KT 9999 FEW030 BECMG 0517/0519 24005KT BECMG 0600/0602 VRB03KT 6000 SCT040 PROB40 TEMPO 0600/0605 2000 MIFG SCT010 BECMG 0605/0607 23005KT 9999 BKN040 =
SR / SS: 03:41 / 18:55 UTC (Effemeridi LIQL 2020-06-05)